Time;durP1;ratioP1;P1;durP2;ratioP2;P2;SDS_P1;SDS_P2;PMS_P1;PMS_P2;Temp;Humidity;BMP_temperature;BMP_pressure;BME280_temperature;BME280_humidity;BME280_pressure;Samples;Min_cycle;Max_cycle;Signal;HPM_P1;HPM_P2
2021/08/27 00:02:21;;;;;;;6.95;1.23;;;;;;;;;;5025240;28;20505;-83
2021/08/27 00:04:46;;;;;;;9.57;1.48;;;;;;;;;;5024653;28;20026;-84
2021/08/27 00:07:12;;;;;;;7.20;1.42;;;;;;;;;;5027716;28;20037;-84
2021/08/27 00:09:37;;;;;;;6.85;1.65;;;;;;;;;;5028948;28;20037;-84
2021/08/27 00:12:03;;;;;;;9.00;1.52;;;;;;;;;;5047031;28;20029;-84
2021/08/27 00:14:28;;;;;;;7.60;1.75;;;;;;;;;;5047380;28;20021;-84
2021/08/27 00:16:54;;;;;;;9.68;1.42;;;;;;;;;;5045653;28;20055;-85
2021/08/27 00:19:20;;;;;;;19.90;1.60;;;;;;;;;;5045581;28;20033;-84
2021/08/27 00:21:46;;;;;;;13.52;1.73;;;;;;;;;;5046673;28;20029;-83
2021/08/27 00:24:11;;;;;;;10.13;1.75;;;;;;;;;;5048601;28;20076;-83
2021/08/27 00:26:36;;;;;;;9.05;1.45;;;;;;;;;;5045986;28;20021;-85
2021/08/27 00:29:02;;;;;;;11.32;2.10;;;;;;;;;;5045505;28;20026;-84
2021/08/27 00:31:28;;;;;;;9.82;1.30;;;;;;;;;;5044248;28;20513;-83
2021/08/27 00:33:54;;;;;;;14.25;1.63;;;;;;;;;;5046017;28;20029;-84
2021/08/27 00:36:19;;;;;;;10.77;2.15;;;;;;;;;;5046716;28;20029;-83
2021/08/27 00:38:45;;;;;;;11.63;1.92;;;;;;;;;;5046079;28;20036;-84
2021/08/27 00:41:12;;;;;;;6.35;1.42;;;;;;;;;;5046466;28;20063;-83
2021/08/27 00:43:38;;;;;;;9.82;1.80;;;;;;;;;;5046266;28;20025;-83
2021/08/27 00:46:03;;;;;;;10.65;1.40;;;;;;;;;;5044715;28;20040;-85
2021/08/27 00:48:28;;;;;;;12.65;1.67;;;;;;;;;;5045847;28;20031;-83
2021/08/27 00:50:54;;;;;;;9.45;1.70;;;;;;;;;;5044631;28;20018;-84
2021/08/27 00:53:19;;;;;;;9.85;1.42;;;;;;;;;;5046512;28;20035;-84
2021/08/27 00:55:46;;;;;;;9.05;1.65;;;;;;;;;;5045476;28;20018;-85
2021/08/27 00:58:13;;;;;;;11.77;1.70;;;;;;;;;;5045979;28;20031;-84
2021/08/27 01:00:38;;;;;;;7.75;1.23;;;;;;;;;;5045391;28;20029;-83
2021/08/27 01:03:04;;;;;;;11.30;1.83;;;;;;;;;;5046740;28;20052;-83
2021/08/27 01:05:33;;;;;;;8.00;1.42;;;;;;;;;;5044363;28;20442;-82
2021/08/27 01:08:15;;;;;;;9.52;1.70;;;;;;;;;;5039523;28;20029;-82
2021/08/27 01:10:48;;;;;;;14.15;2.17;;;;;;;;;;5056185;28;20025;-82
2021/08/27 01:13:22;;;;;;;7.88;1.40;;;;;;;;;;5040202;28;20068;-82
2021/08/27 01:16:01;;;;;;;8.25;1.88;;;;;;;;;;5035612;28;20037;-82
2021/08/27 01:18:26;;;;;;;10.85;1.48;;;;;;;;;;5039960;28;20071;-85
2021/08/27 01:21:00;;;;;;;11.60;1.30;;;;;;;;;;5044118;28;20025;-86
2021/08/27 01:23:49;;;;;;;14.00;1.45;;;;;;;;;;5043975;28;20026;-83
2021/08/27 01:26:20;;;;;;;6.53;1.35;;;;;;;;;;5043504;28;20033;-84
2021/08/27 01:28:49;;;;;;;12.50;2.25;;;;;;;;;;5044789;28;20029;-83
2021/08/27 01:31:19;;;;;;;14.10;1.77;;;;;;;;;;5043131;28;20021;-85
2021/08/27 01:33:58;;;;;;;8.25;1.30;;;;;;;;;;5039349;28;20037;-84
2021/08/27 01:36:24;;;;;;;12.88;2.20;;;;;;;;;;5024527;28;20056;-83
2021/08/27 01:38:51;;;;;;;8.30;1.60;;;;;;;;;;5023216;28;20089;-84
2021/08/27 01:41:17;;;;;;;9.02;1.40;;;;;;;;;;5023084;28;20060;-83
2021/08/27 01:43:44;;;;;;;11.15;2.17;;;;;;;;;;5024908;28;20454;-84
2021/08/27 01:46:12;;;;;;;11.48;1.70;;;;;;;;;;5024855;28;20056;-84
2021/08/27 01:48:38;;;;;;;6.05;1.90;;;;;;;;;;5041626;28;20025;-84
2021/08/27 01:51:09;;;;;;;8.52;2.13;;;;;;;;;;5044746;28;20033;-84
2021/08/27 01:53:35;;;;;;;16.73;2.50;;;;;;;;;;5045124;28;20482;-84
2021/08/27 01:56:03;;;;;;;8.27;1.65;;;;;;;;;;5043100;28;20028;-85
2021/08/27 01:58:30;;;;;;;8.65;1.92;;;;;;;;;;5043963;28;20029;-82
2021/08/27 02:00:57;;;;;;;8.70;1.60;;;;;;;;;;5044835;28;20029;-84
2021/08/27 02:03:25;;;;;;;11.02;1.60;;;;;;;;;;5039370;28;20017;-83
2021/08/27 02:05:52;;;;;;;12.35;1.48;;;;;;;;;;5023204;28;20030;-84
2021/08/27 02:08:18;;;;;;;6.40;1.70;;;;;;;;;;5023622;28;20021;-85
2021/08/27 02:10:45;;;;;;;10.77;1.70;;;;;;;;;;5022193;28;20029;-85
2021/08/27 02:13:12;;;;;;;12.55;2.13;;;;;;;;;;5024818;28;20026;-83
2021/08/27 02:15:38;;;;;;;6.97;1.98;;;;;;;;;;5021980;28;20022;-83
2021/08/27 02:18:04;;;;;;;6.63;1.55;;;;;;;;;;5023505;28;20049;-83
2021/08/27 02:20:30;;;;;;;10.30;1.58;;;;;;;;;;5041406;28;20033;-83
2021/08/27 02:22:56;;;;;;;7.72;1.60;;;;;;;;;;5044088;28;20029;-84
2021/08/27 02:25:26;;;;;;;13.95;2.10;;;;;;;;;;5043604;28;20089;-85
2021/08/27 02:27:52;;;;;;;8.00;1.80;;;;;;;;;;5058330;28;20021;-84
2021/08/27 02:30:20;;;;;;;11.82;1.98;;;;;;;;;;5043289;28;20045;-83
2021/08/27 02:32:47;;;;;;;10.35;1.73;;;;;;;;;;5041233;28;20037;-84
2021/08/27 02:35:14;;;;;;;12.43;1.60;;;;;;;;;;5039467;28;20497;-85
2021/08/27 02:37:41;;;;;;;8.48;1.77;;;;;;;;;;5024389;28;20022;-84
2021/08/27 02:40:07;;;;;;;13.23;1.90;;;;;;;;;;5027412;28;20032;-84
2021/08/27 02:42:33;;;;;;;8.95;1.63;;;;;;;;;;5023638;28;20030;-82
2021/08/27 02:45:00;;;;;;;8.60;1.77;;;;;;;;;;5023743;28;20032;-85
2021/08/27 02:47:25;;;;;;;7.18;1.95;;;;;;;;;;5025591;28;20033;-84
2021/08/27 02:49:51;;;;;;;13.05;2.45;;;;;;;;;;5024678;28;20033;-85
2021/08/27 02:52:26;;;;;;;5.28;1.40;;;;;;;;;;5043459;28;20393;-83
2021/08/27 02:55:03;;;;;;;14.18;1.77;;;;;;;;;;5043142;28;20049;-85
2021/08/27 02:57:31;;;;;;;9.02;1.65;;;;;;;;;;5043157;28;20029;-85
2021/08/27 03:00:00;;;;;;;9.20;1.70;;;;;;;;;;5042231;28;20083;-85
2021/08/27 03:02:27;;;;;;;6.57;1.83;;;;;;;;;;5045953;28;20056;-84
2021/08/27 03:05:03;;;;;;;6.47;1.67;;;;;;;;;;5046840;28;20022;-85
2021/08/27 03:07:30;;;;;;;6.85;1.30;;;;;;;;;;5045349;28;20030;-84
2021/08/27 03:10:16;;;;;;;5.20;1.40;;;;;;;;;;5045242;28;20053;-84
2021/08/27 03:12:50;;;;;;;8.40;1.63;;;;;;;;;;5045708;28;20025;-84
2021/08/27 03:16:01;;;;;;;6.50;1.83;;;;;;;;;;5047435;28;20032;-84
2021/08/27 03:18:55;;;;;;;8.48;1.70;;;;;;;;;;5046500;28;20033;-85
2021/08/27 03:21:26;;;;;;;10.75;1.95;;;;;;;;;;5020083;28;20034;-84
2021/08/27 03:23:57;;;;;;;9.70;2.10;;;;;;;;;;5046840;28;20056;-85
2021/08/27 03:26:27;;;;;;;13.00;1.70;;;;;;;;;;5046583;28;20032;-85
2021/08/27 03:28:58;;;;;;;9.02;1.95;;;;;;;;;;5046294;28;20032;-84
2021/08/27 03:31:25;;;;;;;6.75;1.85;;;;;;;;;;5046597;28;20044;-83
2021/08/27 03:33:54;;;;;;;16.02;2.35;;;;;;;;;;5048016;28;20550;-85
2021/08/27 03:36:21;;;;;;;8.45;1.65;;;;;;;;;;5045125;28;20064;-82
2021/08/27 03:38:46;;;;;;;7.65;2.00;;;;;;;;;;5046372;28;20018;-83
2021/08/27 03:41:12;;;;;;;12.52;2.72;;;;;;;;;;5047197;28;20087;-84
2021/08/27 03:43:40;;;;;;;16.45;2.63;;;;;;;;;;5047719;28;20390;-84
2021/08/27 03:46:06;;;;;;;8.18;1.45;;;;;;;;;;5047561;28;20113;-83
2021/08/27 03:48:33;;;;;;;11.85;2.10;;;;;;;;;;5047272;28;20021;-85
2021/08/27 03:50:59;;;;;;;9.93;2.08;;;;;;;;;;5045482;28;20030;-85
2021/08/27 03:53:26;;;;;;;6.90;1.90;;;;;;;;;;5046876;28;20105;-85
2021/08/27 03:55:53;;;;;;;8.82;1.92;;;;;;;;;;5044812;28;20037;-86
2021/08/27 03:58:22;;;;;;;8.93;2.30;;;;;;;;;;5044597;28;20032;-84
2021/08/27 04:00:50;;;;;;;10.07;2.90;;;;;;;;;;5045393;28;20036;-83
2021/08/27 04:03:19;;;;;;;7.95;2.03;;;;;;;;;;5045455;28;20055;-85
2021/08/27 04:06:06;;;;;;;12.48;1.85;;;;;;;;;;5045500;28;20025;-84
2021/08/27 04:08:35;;;;;;;9.50;2.13;;;;;;;;;;5045788;28;20021;-84
2021/08/27 04:11:00;;;;;;;13.48;2.78;;;;;;;;;;5046183;28;20052;-85
2021/08/27 04:13:26;;;;;;;9.18;2.08;;;;;;;;;;5045941;28;20166;-83
2021/08/27 04:15:52;;;;;;;9.35;1.90;;;;;;;;;;5041523;28;20155;-85
2021/08/27 04:18:17;;;;;;;10.35;2.03;;;;;;;;;;5026990;28;20044;-83
2021/08/27 04:20:43;;;;;;;6.82;2.13;;;;;;;;;;5042887;28;20462;-85
2021/08/27 04:23:08;;;;;;;12.05;2.30;;;;;;;;;;5059332;28;20578;-83
2021/08/27 04:25:33;;;;;;;7.88;2.03;;;;;;;;;;5041333;28;20029;-81
2021/08/27 04:27:59;;;;;;;9.20;1.90;;;;;;;;;;5043554;28;20026;-85
2021/08/27 04:30:24;;;;;;;7.18;1.83;;;;;;;;;;5058346;28;20060;-83
2021/08/27 04:32:50;;;;;;;7.45;1.95;;;;;;;;;;5043326;28;20040;-83
2021/08/27 04:35:15;;;;;;;7.00;2.10;;;;;;;;;;5050901;28;20105;-82
2021/08/27 04:37:41;;;;;;;6.50;2.03;;;;;;;;;;5044252;28;20371;-83
2021/08/27 04:40:07;;;;;;;9.57;1.98;;;;;;;;;;5043610;28;20071;-84
2021/08/27 04:42:32;;;;;;;9.93;2.42;;;;;;;;;;5043108;28;20021;-83
2021/08/27 04:44:57;;;;;;;11.07;2.20;;;;;;;;;;5044533;28;20026;-84
2021/08/27 04:47:23;;;;;;;11.60;2.70;;;;;;;;;;5049733;28;20089;-83
2021/08/27 04:49:48;;;;;;;9.65;2.75;;;;;;;;;;5052308;28;20033;-84
2021/08/27 04:52:13;;;;;;;11.57;3.20;;;;;;;;;;5050907;28;20033;-84
2021/08/27 04:54:39;;;;;;;10.52;4.00;;;;;;;;;;5050318;28;20037;-83
2021/08/27 04:57:04;;;;;;;12.68;4.55;;;;;;;;;;5050540;28;20060;-83
2021/08/27 04:59:30;;;;;;;17.77;5.75;;;;;;;;;;5051001;28;20049;-82
2021/08/27 05:01:55;;;;;;;13.75;4.63;;;;;;;;;;5052577;28;20029;-82
2021/08/27 05:04:21;;;;;;;16.30;5.50;;;;;;;;;;5047617;28;20144;-80
2021/08/27 05:06:46;;;;;;;16.15;5.28;;;;;;;;;;5020842;28;20026;-82
2021/08/27 05:09:12;;;;;;;12.27;4.82;;;;;;;;;;5019471;28;20112;-82
2021/08/27 05:11:38;;;;;;;18.02;6.15;;;;;;;;;;5018987;28;20029;-82
2021/08/27 05:14:03;;;;;;;15.15;5.05;;;;;;;;;;5020565;28;20108;-82
2021/08/27 05:16:28;;;;;;;15.68;5.18;;;;;;;;;;5018587;28;20030;-83
2021/08/27 05:18:54;;;;;;;14.38;5.07;;;;;;;;;;5018919;28;20045;-83
2021/08/27 05:21:19;;;;;;;13.05;4.50;;;;;;;;;;5038322;28;20130;-82
2021/08/27 05:23:44;;;;;;;11.38;4.13;;;;;;;;;;5039504;28;20026;-82
2021/08/27 05:26:10;;;;;;;12.95;4.38;;;;;;;;;;5038439;28;20112;-81
2021/08/27 05:28:35;;;;;;;8.52;3.72;;;;;;;;;;5035146;28;20030;-82
2021/08/27 05:31:01;;;;;;;11.07;3.67;;;;;;;;;;5021423;28;20026;-81
2021/08/27 05:33:26;;;;;;;18.17;4.05;;;;;;;;;;5021883;28;20052;-82
2021/08/27 05:35:51;;;;;;;12.10;3.30;;;;;;;;;;5022492;28;20026;-82
2021/08/27 05:38:17;;;;;;;13.73;3.90;;;;;;;;;;5019884;28;20032;-80
2021/08/27 05:40:42;;;;;;;17.42;3.53;;;;;;;;;;5021042;28;20463;-82
2021/08/27 05:43:07;;;;;;;13.50;3.58;;;;;;;;;;5034395;28;20457;-81
2021/08/27 05:45:33;;;;;;;16.33;4.35;;;;;;;;;;5037743;28;20052;-81
2021/08/27 05:47:58;;;;;;;12.20;3.40;;;;;;;;;;5038141;28;20527;-82
2021/08/27 05:50:24;;;;;;;9.40;3.47;;;;;;;;;;5038954;28;20021;-81
2021/08/27 05:52:49;;;;;;;10.15;2.65;;;;;;;;;;5038173;28;20370;-84
2021/08/27 05:55:20;;;;;;;10.27;3.70;;;;;;;;;;5039361;28;20026;-80
2021/08/27 05:57:47;;;;;;;11.38;3.20;;;;;;;;;;5040108;28;20037;-81
2021/08/27 06:00:14;;;;;;;9.38;3.00;;;;;;;;;;5040825;28;20029;-81
2021/08/27 06:02:39;;;;;;;9.20;3.15;;;;;;;;;;5038785;28;20053;-82
2021/08/27 06:05:05;;;;;;;15.27;3.70;;;;;;;;;;5040063;28;20028;-82
2021/08/27 06:07:30;;;;;;;15.32;2.95;;;;;;;;;;5037706;28;20025;-83
2021/08/27 06:09:56;;;;;;;13.10;4.70;;;;;;;;;;5037828;28;20093;-83
2021/08/27 06:12:21;;;;;;;10.80;2.30;;;;;;;;;;5037885;28;20389;-82
2021/08/27 06:14:47;;;;;;;10.27;3.00;;;;;;;;;;5038310;28;20056;-83
2021/08/27 06:17:12;;;;;;;10.63;2.67;;;;;;;;;;5039387;28;20026;-82
2021/08/27 06:19:38;;;;;;;12.13;2.95;;;;;;;;;;5037155;28;20028;-83
2021/08/27 06:22:03;;;;;;;11.95;3.00;;;;;;;;;;5037777;28;20102;-82
2021/08/27 06:24:29;;;;;;;8.73;2.60;;;;;;;;;;5037202;28;20032;-83
2021/08/27 06:26:55;;;;;;;17.27;2.42;;;;;;;;;;5038484;28;20037;-80
2021/08/27 06:29:22;;;;;;;15.50;2.95;;;;;;;;;;5037291;28;20029;-83
2021/08/27 06:31:47;;;;;;;8.65;2.28;;;;;;;;;;5037502;28;20033;-83
2021/08/27 06:34:12;;;;;;;13.98;3.30;;;;;;;;;;5037609;28;20025;-83
2021/08/27 06:36:38;;;;;;;13.63;2.53;;;;;;;;;;5041045;28;20033;-82
2021/08/27 06:39:03;;;;;;;14.45;3.00;;;;;;;;;;5042653;28;20033;-84
2021/08/27 06:41:29;;;;;;;10.27;2.50;;;;;;;;;;5044003;28;20079;-83
2021/08/27 06:43:54;;;;;;;14.65;2.70;;;;;;;;;;5043319;28;20113;-81
2021/08/27 06:46:23;;;;;;;11.18;4.20;;;;;;;;;;5042323;28;20100;-80
2021/08/27 06:48:49;;;;;;;4.80;2.35;;;;;;;;;;5037944;28;20062;-81
2021/08/27 06:51:15;;;;;;;17.52;2.45;;;;;;;;;;5042776;28;20033;-80
2021/08/27 06:53:41;;;;;;;10.43;2.38;;;;;;;;;;5040728;28;20032;-81
2021/08/27 06:56:07;;;;;;;9.02;3.40;;;;;;;;;;5041319;28;20021;-80
2021/08/27 06:58:32;;;;;;;8.25;2.70;;;;;;;;;;5041103;28;20367;-83
2021/08/27 07:00:58;;;;;;;11.98;3.50;;;;;;;;;;5042918;28;20053;-84
2021/08/27 07:03:24;;;;;;;13.85;2.50;;;;;;;;;;5042335;28;20099;-83
2021/08/27 07:05:49;;;;;;;11.07;2.45;;;;;;;;;;5040479;28;20029;-83
2021/08/27 07:08:15;;;;;;;13.50;2.60;;;;;;;;;;5042439;28;20022;-82
2021/08/27 07:10:40;;;;;;;5.95;2.30;;;;;;;;;;5044331;28;20077;-83
2021/08/27 07:13:06;;;;;;;10.77;2.60;;;;;;;;;;5041251;28;20048;-83
2021/08/27 07:15:33;;;;;;;6.95;2.20;;;;;;;;;;5041400;28;20026;-82
2021/08/27 07:17:58;;;;;;;5.05;1.75;;;;;;;;;;5044557;28;20079;-82
2021/08/27 07:20:24;;;;;;;11.48;2.28;;;;;;;;;;5043118;28;20034;-82
2021/08/27 07:22:49;;;;;;;6.40;1.98;;;;;;;;;;5041517;28;20508;-83
2021/08/27 07:25:16;;;;;;;11.88;2.47;;;;;;;;;;5041834;28;20037;-83
2021/08/27 07:27:42;;;;;;;9.77;2.10;;;;;;;;;;5042301;28;20029;-83
2021/08/27 07:30:09;;;;;;;14.65;2.88;;;;;;;;;;5038049;28;20026;-83
2021/08/27 07:32:35;;;;;;;9.02;2.35;;;;;;;;;;5021688;28;20430;-82
2021/08/27 07:35:00;;;;;;;10.65;2.20;;;;;;;;;;5022894;28;20018;-83
2021/08/27 07:37:26;;;;;;;9.00;2.30;;;;;;;;;;5021450;28;20026;-83
2021/08/27 07:39:51;;;;;;;8.75;2.47;;;;;;;;;;5023403;28;20028;-83
2021/08/27 07:42:17;;;;;;;5.85;2.00;;;;;;;;;;5020336;28;20044;-84
2021/08/27 07:44:42;;;;;;;9.35;1.90;;;;;;;;;;5020517;28;20033;-81
2021/08/27 07:47:08;;;;;;;5.80;1.60;;;;;;;;;;5038620;28;20044;-83
2021/08/27 07:49:34;;;;;;;7.22;1.90;;;;;;;;;;5041540;28;20033;-82
2021/08/27 07:52:00;;;;;;;10.65;2.40;;;;;;;;;;5040242;28;20034;-83
2021/08/27 07:54:26;;;;;;;7.82;1.50;;;;;;;;;;5041647;28;20028;-83
2021/08/27 07:56:51;;;;;;;8.32;2.00;;;;;;;;;;5042527;28;20025;-82
2021/08/27 07:59:17;;;;;;;8.40;1.77;;;;;;;;;;5040479;28;20022;-82
2021/08/27 08:01:42;;;;;;;8.23;1.63;;;;;;;;;;5039729;28;20033;-82
2021/08/27 08:04:08;;;;;;;8.93;2.00;;;;;;;;;;5040506;28;20477;-81
2021/08/27 08:06:35;;;;;;;12.15;1.95;;;;;;;;;;5040252;28;20537;-83
2021/08/27 08:09:02;;;;;;;6.40;1.73;;;;;;;;;;5039694;28;20486;-83
2021/08/27 08:11:27;;;;;;;6.57;2.13;;;;;;;;;;5039423;28;20453;-84
2021/08/27 08:13:53;;;;;;;6.35;2.00;;;;;;;;;;5039245;28;20032;-83
2021/08/27 08:16:18;;;;;;;8.32;1.88;;;;;;;;;;5039809;28;20539;-84
2021/08/27 08:18:43;;;;;;;8.50;2.00;;;;;;;;;;5040897;28;20032;-83
2021/08/27 08:21:09;;;;;;;10.60;2.40;;;;;;;;;;5040919;28;20075;-84
2021/08/27 08:23:35;;;;;;;13.05;2.00;;;;;;;;;;5039764;28;20545;-83
2021/08/27 08:26:01;;;;;;;11.10;2.15;;;;;;;;;;5035993;28;20081;-83
2021/08/27 08:28:27;;;;;;;6.57;1.67;;;;;;;;;;5020051;28;20041;-83
2021/08/27 08:30:53;;;;;;;8.00;2.15;;;;;;;;;;5027177;28;20037;-81
2021/08/27 08:33:22;;;;;;;9.35;1.98;;;;;;;;;;5041451;28;20029;-82
2021/08/27 08:35:49;;;;;;;7.25;1.60;;;;;;;;;;5038662;28;20433;-83
2021/08/27 08:38:17;;;;;;;8.98;2.13;;;;;;;;;;5040691;28;20021;-83
2021/08/27 08:40:44;;;;;;;9.23;2.17;;;;;;;;;;5040846;28;20029;-83
2021/08/27 08:43:12;;;;;;;14.30;2.67;;;;;;;;;;5040109;28;20167;-83
2021/08/27 08:45:45;;;;;;;12.38;1.73;;;;;;;;;;5041038;28;20048;-83
2021/08/27 08:48:11;;;;;;;10.30;2.22;;;;;;;;;;5039703;28;20036;-83
2021/08/27 08:50:38;;;;;;;8.50;1.75;;;;;;;;;;5040923;28;20056;-84
2021/08/27 08:53:04;;;;;;;3.95;2.13;;;;;;;;;;5039054;28;20029;-82
2021/08/27 08:55:31;;;;;;;12.20;1.70;;;;;;;;;;5040005;28;20095;-82
2021/08/27 08:57:57;;;;;;;5.65;1.42;;;;;;;;;;5038711;28;20482;-80
2021/08/27 09:00:23;;;;;;;6.55;1.67;;;;;;;;;;5040281;28;20113;-81
2021/08/27 09:02:48;;;;;;;8.23;1.67;;;;;;;;;;5039979;28;20057;-82
2021/08/27 09:05:14;;;;;;;8.60;1.55;;;;;;;;;;5039252;28;20493;-82
2021/08/27 09:07:40;;;;;;;8.52;1.60;;;;;;;;;;5038108;28;20029;-80
2021/08/27 09:10:06;;;;;;;6.15;1.55;;;;;;;;;;5036436;28;20033;-81
2021/08/27 09:12:31;;;;;;;4.72;1.23;;;;;;;;;;5038399;28;20029;-82
2021/08/27 09:14:59;;;;;;;3.65;1.10;;;;;;;;;;5038523;28;20029;-80
2021/08/27 09:17:34;;;;;;;9.13;1.42;;;;;;;;;;5038274;28;20053;-81
2021/08/27 09:19:59;;;;;;;6.65;1.48;;;;;;;;;;5038918;28;20025;-82
2021/08/27 09:22:41;;;;;;;5.53;1.73;;;;;;;;;;5039497;28;20022;-81
2021/08/27 09:25:08;;;;;;;5.57;1.77;;;;;;;;;;5038527;28;20458;-80
2021/08/27 09:27:36;;;;;;;3.00;1.40;;;;;;;;;;5041503;28;20060;-81
2021/08/27 09:30:08;;;;;;;4.65;1.20;;;;;;;;;;5039709;28;20044;-81
2021/08/27 09:32:34;;;;;;;3.92;1.52;;;;;;;;;;5039407;28;20095;-83
2021/08/27 09:35:02;;;;;;;6.03;1.55;;;;;;;;;;5039504;28;20029;-81
2021/08/27 09:37:48;;;;;;;8.68;1.50;;;;;;;;;;5038213;28;20068;-81
2021/08/27 09:40:16;;;;;;;5.78;1.15;;;;;;;;;;5039308;28;20492;-82
2021/08/27 09:42:50;;;;;;;7.60;1.20;;;;;;;;;;5038386;28;20112;-82
2021/08/27 09:45:18;;;;;;;9.45;1.70;;;;;;;;;;5039123;28;20045;-81
2021/08/27 09:48:13;;;;;;;4.97;1.45;;;;;;;;;;5037509;28;20026;-83
2021/08/27 09:50:40;;;;;;;5.43;1.60;;;;;;;;;;5038191;28;20444;-83
2021/08/27 09:53:08;;;;;;;12.07;2.10;;;;;;;;;;5039474;28;20033;-83
2021/08/27 09:55:36;;;;;;;10.15;1.80;;;;;;;;;;5038407;28;20029;-83
2021/08/27 09:58:12;;;;;;;2.65;1.13;;;;;;;;;;5038229;28;20025;-82
2021/08/27 10:00:42;;;;;;;4.88;1.40;;;;;;;;;;5033906;28;20111;-81
2021/08/27 10:03:17;;;;;;;10.30;1.50;;;;;;;;;;5017355;28;20498;-81
2021/08/27 10:05:44;;;;;;;7.57;1.42;;;;;;;;;;5018031;28;20037;-82
2021/08/27 10:08:14;;;;;;;8.02;1.50;;;;;;;;;;5018108;28;20038;-80
2021/08/27 10:10:40;;;;;;;4.55;1.63;;;;;;;;;;5017080;28;20026;-81
2021/08/27 10:13:11;;;;;;;3.97;1.27;;;;;;;;;;5019849;28;20442;-81
2021/08/27 10:15:38;;;;;;;8.15;1.67;;;;;;;;;;5026136;28;20053;-80
2021/08/27 10:18:08;;;;;;;7.60;1.58;;;;;;;;;;5039374;28;20056;-81
2021/08/27 10:20:34;;;;;;;11.85;1.98;;;;;;;;;;5037494;28;20030;-82
2021/08/27 10:23:00;;;;;;;5.90;1.77;;;;;;;;;;5039197;28;20026;-81
2021/08/27 10:25:27;;;;;;;6.78;1.65;;;;;;;;;;5039774;28;20021;-80
2021/08/27 10:27:54;;;;;;;5.93;1.20;;;;;;;;;;5038919;28;20017;-82
2021/08/27 10:30:20;;;;;;;6.68;1.85;;;;;;;;;;5038449;28;20033;-81
2021/08/27 10:32:45;;;;;;;9.68;2.03;;;;;;;;;;5038226;28;20026;-83
2021/08/27 10:35:22;;;;;;;5.78;2.33;;;;;;;;;;5038579;28;20023;-82
2021/08/27 10:37:49;;;;;;;7.32;1.92;;;;;;;;;;5038908;28;20029;-80
2021/08/27 10:40:24;;;;;;;8.30;1.88;;;;;;;;;;5037851;28;20483;-82
2021/08/27 10:42:50;;;;;;;10.73;2.53;;;;;;;;;;5039062;28;20033;-82
2021/08/27 10:45:32;;;;;;;9.45;1.88;;;;;;;;;;5038348;28;20082;-81
2021/08/27 10:48:14;;;;;;;11.82;2.70;;;;;;;;;;5037279;28;20124;-81
2021/08/27 10:50:41;;;;;;;9.82;1.95;;;;;;;;;;5039564;28;20105;-82
2021/08/27 10:53:19;;;;;;;7.90;1.90;;;;;;;;;;5037993;28;20025;-81
2021/08/27 10:55:45;;;;;;;7.20;1.50;;;;;;;;;;5039607;28;20025;-84
2021/08/27 10:58:14;;;;;;;6.50;1.55;;;;;;;;;;5039665;28;20036;-83
2021/08/27 11:00:47;;;;;;;3.80;1.40;;;;;;;;;;5040957;28;20053;-81
2021/08/27 11:03:14;;;;;;;;;;;;;;;;;;5040283;28;20039;-82
2021/08/27 11:05:49;;;;;;;12.45;1.40;;;;;;;;;;5039705;28;19936;-83
2021/08/27 11:08:16;;;;;;;5.78;1.13;;;;;;;;;;5039141;28;20022;-81
2021/08/27 11:11:03;;;;;;;4.20;1.48;;;;;;;;;;5038912;28;20034;-82
2021/08/27 11:13:37;;;;;;;5.55;1.83;;;;;;;;;;5039532;28;20036;-79
2021/08/27 11:16:21;;;;;;;5.47;1.60;;;;;;;;;;5039401;28;20478;-79
2021/08/27 11:18:49;;;;;;;2.17;0.85;;;;;;;;;;5038571;28;20051;-83
2021/08/27 11:21:32;;;;;;;4.75;1.33;;;;;;;;;;5038890;28;20029;-85
2021/08/27 11:24:17;;;;;;;3.00;1.27;;;;;;;;;;5043309;28;20542;-82
2021/08/27 11:26:56;;;;;;;2.03;1.08;;;;;;;;;;5041836;28;20109;-81
2021/08/27 11:29:50;;;;;;;7.85;1.88;;;;;;;;;;5039340;28;20026;-84
2021/08/27 11:32:27;;;;;;;6.15;1.20;;;;;;;;;;5038962;28;20044;-82
2021/08/27 11:35:00;;;;;;;4.45;1.27;;;;;;;;;;5025987;28;20097;-80
2021/08/27 11:37:36;;;;;;;2.95;1.30;;;;;;;;;;5028521;28;20029;-85
2021/08/27 11:40:04;;;;;;;10.00;1.92;;;;;;;;;;5043162;28;20108;-81
2021/08/27 11:42:30;;;;;;;2.80;1.13;;;;;;;;;;5044740;28;20033;-82
2021/08/27 11:45:09;;;;;;;4.03;1.40;;;;;;;;;;5044427;28;20049;-84
2021/08/27 11:47:40;;;;;;;6.65;1.58;;;;;;;;;;5040420;28;20034;-81
2021/08/27 11:50:08;;;;;;;8.55;1.45;;;;;;;;;;5023714;28;20030;-83
2021/08/27 11:52:35;;;;;;;7.82;2.08;;;;;;;;;;5027241;28;20022;-82
2021/08/27 11:55:06;;;;;;;6.30;1.42;;;;;;;;;;5026835;28;20018;-82
2021/08/27 11:57:32;;;;;;;7.70;2.05;;;;;;;;;;5041831;28;20123;-82
2021/08/27 12:00:12;;;;;;;6.72;1.52;;;;;;;;;;5045533;28;20032;-80
2021/08/27 12:02:38;;;;;;;6.88;1.40;;;;;;;;;;5050333;28;20033;-83
2021/08/27 12:05:12;;;;;;;6.60;1.45;;;;;;;;;;5042942;28;20112;-81
2021/08/27 12:08:01;;;;;;;6.35;1.50;;;;;;;;;;5044706;28;20097;-81
2021/08/27 12:10:29;;;;;;;5.85;1.40;;;;;;;;;;5041433;28;20025;-78
2021/08/27 12:12:56;;;;;;;6.07;1.65;;;;;;;;;;5041511;28;20096;-80
2021/08/27 12:15:22;;;;;;;7.65;1.92;;;;;;;;;;5056404;28;20025;-81
2021/08/27 12:17:55;;;;;;;9.05;2.35;;;;;;;;;;5040089;28;20033;-82
2021/08/27 12:20:22;;;;;;;2.97;1.30;;;;;;;;;;5038889;28;20036;-81
2021/08/27 12:22:49;;;;;;;9.77;1.33;;;;;;;;;;5041383;28;20104;-77
2021/08/27 12:25:28;;;;;;;4.30;1.20;;;;;;;;;;5041279;28;20017;-79
2021/08/27 12:27:56;;;;;;;7.60;1.20;;;;;;;;;;5039371;28;20486;-78
2021/08/27 12:30:23;;;;;;;3.72;1.25;;;;;;;;;;5040124;28;20037;-80
2021/08/27 12:32:49;;;;;;;5.32;1.17;;;;;;;;;;5039628;28;20029;-79
2021/08/27 12:35:18;;;;;;;4.53;1.10;;;;;;;;;;5039486;28;20044;-80
2021/08/27 12:37:47;;;;;;;5.25;1.30;;;;;;;;;;5039057;28;20029;-82
2021/08/27 12:40:14;;;;;;;3.90;1.30;;;;;;;;;;5038637;28;20026;-81
2021/08/27 12:42:56;;;;;;;4.20;0.88;;;;;;;;;;5039244;28;20040;-84
2021/08/27 12:45:22;;;;;;;3.97;1.30;;;;;;;;;;5038347;28;20508;-84
2021/08/27 12:47:47;;;;;;;3.33;0.90;;;;;;;;;;5038071;28;20123;-81
2021/08/27 12:50:15;;;;;;;8.25;1.35;;;;;;;;;;5038781;28;20076;-83
2021/08/27 12:53:04;;;;;;;4.90;1.33;;;;;;;;;;5038922;28;20083;-82
2021/08/27 12:55:31;;;;;;;7.40;1.23;;;;;;;;;;5038788;28;20029;-83
2021/08/27 12:57:56;;;;;;;2.97;1.00;;;;;;;;;;5040267;28;20025;-82
2021/08/27 13:00:26;;;;;;;2.70;0.77;;;;;;;;;;5038953;28;20032;-82
2021/08/27 13:02:51;;;;;;;5.18;1.55;;;;;;;;;;5039209;28;20025;-84
2021/08/27 13:05:46;;;;;;;5.95;1.50;;;;;;;;;;5041675;28;20037;-83
2021/08/27 13:08:22;;;;;;;1.95;0.90;;;;;;;;;;5019173;28;20097;-83
2021/08/27 13:11:01;;;;;;;2.90;0.90;;;;;;;;;;5019492;28;20037;-79
2021/08/27 13:13:32;;;;;;;10.38;0.90;;;;;;;;;;5020148;28;20116;-79
2021/08/27 13:16:16;;;;;;;11.00;1.80;;;;;;;;;;5019716;28;20021;-82
2021/08/27 13:18:44;;;;;;;;;;;;;;;;;;5021773;28;20109;-84
2021/08/27 13:21:09;;;;;;;4.70;1.17;;;;;;;;;;5028222;28;19909;-82
2021/08/27 13:23:35;;;;;;;4.28;0.95;;;;;;;;;;5044184;28;20025;-81
2021/08/27 13:26:03;;;;;;;4.53;1.20;;;;;;;;;;5039720;28;20402;-81
2021/08/27 13:28:30;;;;;;;4.97;1.45;;;;;;;;;;5038775;28;20120;-81
2021/08/27 13:30:55;;;;;;;5.13;1.55;;;;;;;;;;5037653;28;20510;-82
2021/08/27 13:33:21;;;;;;;5.32;1.80;;;;;;;;;;5041509;28;20108;-82
2021/08/27 13:35:48;;;;;;;7.30;1.60;;;;;;;;;;5038709;28;20327;-81
2021/08/27 13:38:13;;;;;;;4.97;1.63;;;;;;;;;;5037574;28;20101;-81
2021/08/27 13:40:39;;;;;;;10.25;1.85;;;;;;;;;;5038453;28;20029;-80
2021/08/27 13:43:05;;;;;;;9.15;1.60;;;;;;;;;;5039025;28;20040;-83
2021/08/27 13:45:30;;;;;;;4.38;1.40;;;;;;;;;;5053416;28;20098;-80
2021/08/27 13:47:56;;;;;;;3.95;1.20;;;;;;;;;;5038586;28;20021;-80
2021/08/27 13:50:22;;;;;;;4.50;1.48;;;;;;;;;;5038493;28;20025;-81
2021/08/27 13:52:47;;;;;;;7.57;1.80;;;;;;;;;;5039498;28;20037;-81
2021/08/27 13:55:19;;;;;;;4.20;0.93;;;;;;;;;;5038714;28;20026;-80
2021/08/27 13:57:44;;;;;;;5.55;1.50;;;;;;;;;;5038677;28;20025;-80
2021/08/27 14:00:12;;;;;;;6.05;1.50;;;;;;;;;;5038007;28;20029;-82
2021/08/27 14:02:38;;;;;;;9.13;1.30;;;;;;;;;;5038606;28;20033;-82
2021/08/27 14:05:05;;;;;;;3.22;1.42;;;;;;;;;;5039262;28;20397;-80
2021/08/27 14:07:31;;;;;;;5.15;1.50;;;;;;;;;;5038077;28;20342;-79
2021/08/27 14:09:56;;;;;;;4.95;1.10;;;;;;;;;;5038815;28;20485;-79
2021/08/27 14:12:21;;;;;;;4.00;1.00;;;;;;;;;;5039016;28;20478;-81
2021/08/27 14:14:46;;;;;;;8.75;1.13;;;;;;;;;;5038740;28;20026;-79
2021/08/27 14:17:12;;;;;;;4.55;1.10;;;;;;;;;;5038512;28;20440;-80
2021/08/27 14:19:37;;;;;;;4.35;1.63;;;;;;;;;;5038088;28;20059;-81
2021/08/27 14:22:03;;;;;;;9.90;1.60;;;;;;;;;;5039228;28;20084;-80
2021/08/27 14:24:28;;;;;;;5.55;1.38;;;;;;;;;;5039352;28;20029;-82
2021/08/27 14:26:53;;;;;;;10.77;1.65;;;;;;;;;;5038229;28;20018;-80
2021/08/27 14:29:19;;;;;;;26.23;4.20;;;;;;;;;;5038675;28;20044;-79
2021/08/27 14:31:45;;;;;;;4.95;1.40;;;;;;;;;;5037111;28;20021;-80
2021/08/27 14:34:11;;;;;;;5.07;1.50;;;;;;;;;;5038071;28;20029;-81
2021/08/27 14:36:37;;;;;;;6.22;1.65;;;;;;;;;;5038626;28;20417;-81
2021/08/27 14:39:03;;;;;;;5.10;1.25;;;;;;;;;;5041024;28;20025;-83
2021/08/27 14:41:28;;;;;;;5.90;1.45;;;;;;;;;;5037997;28;20063;-82
2021/08/27 14:43:54;;;;;;;8.70;1.13;;;;;;;;;;5039869;28;20034;-82
2021/08/27 14:46:20;;;;;;;3.53;1.20;;;;;;;;;;5039323;28;20021;-81